Weather observations for the past three days for
Unalakleet
Imperial (Metric)
Date Time (akdt) Wind (mph) Vis. (mi.) Weather Sky Cond. Temperature (ºF) Relative Humidity Wind Chill (°F) Heat Index (°F) Pressure Precipitation (in)
Air Dwpt 6 hour altimeter (in) sea level (mb) 1 hr 3 hr 6 hr
Max. Min.
07 10:56 NW 10 10.00 Fair CLR 26.1 19.9 78% 17 30.14 1021.0
07 09:56 NW 8 10.00 Mostly Cloudy BKN080 26.1 19.9 26.1 21 78% 18 30.14 1021.1
07 08:56 NW 6 10.00 Mostly Cloudy BKN085 25 19 78% 19 30.14 1020.8
07 07:56 Calm 10.00 Overcast OVC095 23 21 92% 30.13 1020.8
07 06:56 N 3 10.00 Fair CLR 21.9 21 96% 30.13 1020.8
07 05:56 NE 5 10.00 Fair CLR 21 19.9 96% 15 30.13 1020.7
07 04:56 Calm 10.00 Fair CLR 23 21 92% 30.12 1020.3
07 03:56 S 8 10.00 A Few Clouds FEW011 25 23 28.9 25 92% 17 30.12 1020.3
07 02:56 SW 10 10.00 Mostly Cloudy BKN050 27 25 92% 18 30.11 1020.0
07 01:56 W 7 10.00 Overcast SCT034 OVC048 28 26.1 92% 22 30.11 1020.1
07 00:56 W 8 10.00 Overcast OVC050 28 26.1 92% 21 30.11 1019.9
06 23:56 W 9 9.00 Light Snow OVC050 28.9 26.1 89% 21 30.11 1019.8
06 22:56 W 8 10.00 Overcast OVC050 28.9 25 85% 22 30.1 1019.7
06 21:56 W 9 10.00 Overcast OVC050 28.9 24.1 32 28.9 82% 21 30.1 1019.6
06 20:56 W 10 10.00 Fair CLR 30 24.1 79% 22 30.1 1019.6
06 19:56 W 9 10.00 A Few Clouds FEW042 30.9 24.1 76% 24 30.1 1019.5
06 18:56 W 8 10.00 Fair CLR 32 21.9 66% 25 30.09 1019.3
06 17:56 W 7 10.00 Overcast OVC038 30.9 21 67% 25 30.09 1019.1
06 16:56 W 7 10.00 Overcast OVC036 30.9 21 67% 25 30.09 1019.2
06 15:56 NW 6 10.00 Overcast OVC038 30 21 32 27 69% 25 30.09 1019.1
06 14:56 W 9 10.00 Overcast OVC040 30.9 25 79% 24 30.08 1019.1
06 13:56 SW 12 9.00 Light Snow OVC014 30.9 25 79% 22 30.08 1019.0
06 12:56 SW 12 9.00 Light Snow FEW011 OVC020 30 24.1 79% 21 30.08 1018.8
06 11:56 SW 15 9.00 Light Snow FEW011 OVC018 28.9 24.1 82% 18 30.07 1018.5
06 10:56 SW 15 9.00 Light Snow OVC016 28 23 81% 17 30.06 1018.4
06 09:56 SW 15 9.00 Light Snow FEW010 OVC016 27 23 27 26.1 85% 16 30.05 1018.1
06 08:56 S 14 10.00 Light Snow OVC014 27 23 85% 16 30.05 1017.8
06 07:56 S 12 10.00 Overcast OVC014 27 23 85% 17 30.04 1017.6
06 06:56 SW 12 10.00 Overcast OVC014 26.1 23 88% 16 30.03 1017.2
06 05:56 S 10 10.00 Overcast OVC012 26.1 23 88% 17 30.02 1017.0
06 04:56 SW 13 10.00 Overcast OVC012 27 23 85% 17 30.02 1016.8
06 03:56 S 10 10.00 Overcast OVC014 27 23 28.9 27 85% 18 30.01 1016.6
06 02:56 SW 15 10.00 Overcast OVC014 28 24.1 85% 17 30 1016.3
06 01:56 W 12 10.00 Overcast OVC016 28 25 88% 19 29.99 1016.1
06 00:56 SW 9 10.00 Overcast OVC018 28 26.1 92% 20 29.99 1015.7
05 23:56 SW 9 10.00 Overcast OVC018 28 26.1 92% 20 29.98 1015.5
05 22:56 S 10 10.00 Overcast OVC016 28 25 88% 19 29.97 1015.3
05 21:56 SW 12 10.00 Overcast OVC014 28.9 25 30.9 28.9 85% 20 29.97 1015.1
05 20:56 W 12 10.00 Overcast OVC014 30 25 82% 21 29.95 1014.7
05 19:56 W 13 10.00 Partly Cloudy SCT014 30 25 82% 21 29.95 1014.6
05 18:56 W 10 10.00 Fair CLR 30.9 25 79% 23 29.94 1014.2
05 17:56 W 12 10.00 Fair CLR 30.9 25 79% 22 29.93 1013.8
05 16:56 W 15 10.00 Fair CLR 30.9 25 79% 21 29.93 1013.8
05 15:56 W 15 10.00 Fair CLR 30 24.1 30 27 79% 20 29.92 1013.5
05 14:56 NW 18 10.00 Fair CLR 28.9 23 78% 17 29.91 1013.2
05 13:56 NW 20 10.00 Fair CLR 28.9 23 78% 17 29.9 1012.9
05 12:56 NW 21 10.00 Fair and Breezy CLR 28 23 81% 15 29.89 1012.5
05 11:56 NW 22 10.00 Fair and Breezy CLR 27 21.9 81% 14 29.88 1012.3
05 10:56 NW 18 10.00 A Few Clouds FEW017 27 23 85% 15 29.88 1012.1
05 09:56 NW 15 10.00 Fair CLR 27 21.9 27 23 81% 16 29.87 1011.8
05 08:56 NW 15 10.00 Partly Cloudy SCT017 27 21.9 81% 16 29.86 1011.6
05 07:56 NW 7 10.00 Fair CLR 24.1 19.9 84% 17 29.85 1011.1
05 06:56 SW 5 10.00 Fair CLR 23 19.9 88% 18 29.84 1010.8
05 05:56 NW 10 10.00 Fair CLR 24.1 21 88% 15 29.83 1010.4
05 04:56 NW 13 10.00 Fair CLR 26.1 21.9 84% 16 29.81 1009.9
05 03:56 NW 15 10.00 Fair CLR 27 23 37 27 85% 16 29.81 1009.8
05 02:56 NW 10 10.00 Fair CLR 28 24.1 85% 19 29.81 1009.8
05 01:56 NW 13 10.00 Mostly Cloudy BKN060 28.9 25 85% 19 29.81 1009.9
05 00:56 NW 20 10.00 Mostly Cloudy BKN060 30 26.1 85% 18 29.8 1009.6
04 23:56 NW 15 10.00 Fair CLR 30.9 26.1 82% 21 29.81 1009.8
04 22:56 N 15 10.00 Fair CLR 35.1 26.1 70% 26 29.81 1009.9
04 21:56 N 21 10.00 Fair and Breezy CLR 37 26.1 39 32 65% 27 29.81 1009.9
04 20:56 N 20 10.00 Fair CLR 37.9 27 65% 29 29.82 1010.3
04 19:56 NW 20 10.00 Fair CLR 39 28 65% 30 29.84 1010.8
04 18:56 NW 21 10.00 Fair and Breezy CLR 36 28.9 76% 26 29.85 1011.3
04 17:56 NW 23 10.00 Fair and Breezy CLR 36 28.9 76% 25 29.87 1011.8
04 16:56 NW 21 10.00 Fair and Breezy CLR 34 28 79% 23 29.91 1013.2
04 15:56 NW 21 10.00 Fair and Breezy CLR 32 28 32 28 85% 21 29.95 1014.5
04 14:56 NW 21 10.00 Fair and Breezy CLR 30.9 27 85% 19 29.98 1015.7
04 13:56 NW 17 10.00 Mostly Cloudy BKN022 30.9 26.1 82% 20 30.01 1016.7
04 12:56 NW 15 10.00 Overcast OVC016 30 26.1 85% 20 30.04 1017.5
04 11:56 NW 13 10.00 Overcast OVC014 28.9 25 85% 19 30.05 1018.1
Date Time (akdt) Wind (mph) Vis. (mi.) Weather Sky Cond. Air Dwpt Max. Min. Relative Humidity Wind Chill (°F) Heat Index (°F) altimeter (in) sea level (mb) 1 hr 3 hr 6 hr
6 hour
Temperature (ºF) Pressure Precipitation (in)